createdAt,value
2019-03-10T00:00:58.336Z,81.90
2019-03-10T00:03:27.430Z,81.90
2019-03-10T00:05:56.518Z,82.30
2019-03-10T00:08:25.511Z,83.20
2019-03-10T00:10:55.011Z,83.10
2019-03-10T00:13:23.906Z,83.10
2019-03-10T00:15:53.158Z,83.10
2019-03-10T00:18:22.097Z,83.60
2019-03-10T00:20:51.109Z,84.30
2019-03-10T00:23:20.083Z,85.60
2019-03-10T00:25:48.980Z,86.10
2019-03-10T00:28:19.179Z,85.60
2019-03-10T00:30:48.585Z,86.10
2019-03-10T00:33:17.679Z,86.70
2019-03-10T00:35:46.582Z,86.50
2019-03-10T00:38:15.705Z,87.40
2019-03-10T00:41:02.285Z,87.80
2019-03-10T00:43:56.982Z,88.60
2019-03-10T00:47:03.968Z,88.70
2019-03-10T00:49:52.721Z,89.50
2019-03-10T00:52:30.341Z,90.00
2019-03-10T00:54:59.480Z,90.10
2019-03-10T00:57:49.584Z,90.10
2019-03-10T01:00:19.090Z,90.40
2019-03-10T01:02:48.200Z,90.60
2019-03-10T01:05:17.802Z,90.00
2019-03-10T01:07:51.451Z,90.40
2019-03-10T01:10:20.499Z,90.70
2019-03-10T01:12:49.492Z,91.00
2019-03-10T01:15:18.450Z,91.30
2019-03-10T01:17:49.423Z,91.40
2019-03-10T01:20:18.529Z,91.50
2019-03-10T01:22:47.512Z,92.20
2019-03-10T01:25:16.607Z,92.40
2019-03-10T01:27:46.216Z,92.40
2019-03-10T01:30:17.870Z,91.90
2019-03-10T01:33:09.493Z,92.50
2019-03-10T01:35:38.486Z,93.00
2019-03-10T01:38:07.384Z,93.00
2019-03-10T01:40:36.374Z,93.00
2019-03-10T01:43:05.469Z,92.60
2019-03-10T01:45:34.929Z,93.10
2019-03-10T01:48:03.851Z,92.70
2019-03-10T01:50:32.959Z,93.20
2019-03-10T01:53:01.955Z,93.20
2019-03-10T01:55:30.641Z,93.10
2019-03-10T01:57:59.439Z,93.20
2019-03-10T02:00:28.318Z,93.20
2019-03-10T02:02:57.208Z,92.90
2019-03-10T02:05:26.096Z,93.00
2019-03-10T02:07:54.986Z,92.70
2019-03-10T02:10:23.776Z,92.70
2019-03-10T02:12:52.664Z,92.80
2019-03-10T02:15:21.563Z,92.60
2019-03-10T02:17:50.449Z,92.50
2019-03-10T02:20:19.879Z,92.70
2019-03-10T02:22:48.845Z,92.80
2019-03-10T02:25:17.735Z,93.10
2019-03-10T02:27:46.519Z,93.10
2019-03-10T02:30:17.050Z,93.00
2019-03-10T02:32:45.939Z,92.90
2019-03-10T02:35:14.832Z,92.70
2019-03-10T02:37:43.787Z,92.90
2019-03-10T02:40:12.615Z,93.10
2019-03-10T02:42:41.397Z,93.10
2019-03-10T02:45:11.074Z,93.00
2019-03-10T02:47:39.896Z,92.50
2019-03-10T02:50:10.678Z,92.80
2019-03-10T02:52:39.634Z,92.70
2019-03-10T02:55:09.028Z,92.50
2019-03-10T02:57:37.814Z,92.40
2019-03-10T03:00:27.294Z,92.50
2019-03-10T03:02:56.175Z,92.50
2019-03-10T03:05:25.070Z,92.60
2019-03-10T03:07:53.878Z,92.80
2019-03-10T03:10:22.750Z,92.60
2019-03-10T03:12:51.641Z,92.70
2019-03-10T03:15:20.534Z,92.70
2019-03-10T03:17:49.216Z,92.50
2019-03-10T03:20:18.102Z,92.30
2019-03-10T03:22:46.893Z,92.00
2019-03-10T03:25:15.782Z,92.10
2019-03-10T03:27:44.585Z,92.10
2019-03-10T03:30:16.513Z,92.00
2019-03-10T03:32:45.525Z,91.70
2019-03-10T03:35:33.773Z,91.60
2019-03-10T03:38:02.560Z,92.00
2019-03-10T03:40:32.456Z,92.70
2019-03-10T03:43:01.463Z,92.40
2019-03-10T03:45:30.361Z,92.20
2019-03-10T03:47:59.143Z,92.50
2019-03-10T03:50:28.038Z,92.70
2019-03-10T03:52:56.821Z,93.10
2019-03-10T03:55:25.609Z,93.30
2019-03-10T03:57:54.602Z,93.10
2019-03-10T04:00:23.698Z,93.70
2019-03-10T04:02:52.589Z,94.00
2019-03-10T04:05:21.580Z,94.20
2019-03-10T04:07:50.471Z,94.30
2019-03-10T04:10:19.263Z,94.50
2019-03-10T04:12:47.951Z,94.60
2019-03-10T04:15:16.838Z,94.00
2019-03-10T04:17:45.637Z,93.50
2019-03-10T04:20:14.514Z,93.40
2019-03-10T04:22:43.428Z,93.70
2019-03-10T04:25:12.505Z,93.70
2019-03-10T04:27:41.289Z,93.70
2019-03-10T04:30:12.475Z,93.80
2019-03-10T04:32:41.322Z,93.60
2019-03-10T04:35:10.110Z,93.30
2019-03-10T04:37:38.900Z,92.90
2019-03-10T04:40:08.083Z,92.80
2019-03-10T04:42:36.883Z,93.40
2019-03-10T04:45:07.198Z,93.90
2019-03-10T04:47:35.996Z,94.10
2019-03-10T04:50:06.118Z,93.90
2019-03-10T04:52:35.109Z,93.90
2019-03-10T04:55:19.052Z,94.20
2019-03-10T04:57:58.591Z,93.80
2019-03-10T05:00:27.994Z,94.00
2019-03-10T05:02:56.887Z,94.30
2019-03-10T05:05:25.794Z,94.30
2019-03-10T05:07:54.664Z,94.10
2019-03-10T05:10:25.196Z,94.20
2019-03-10T05:12:54.187Z,94.10
2019-03-10T05:15:23.077Z,94.20
2019-03-10T05:17:51.971Z,94.80
2019-03-10T05:20:20.757Z,94.90
2019-03-10T05:22:49.547Z,94.50
2019-03-10T05:25:21.502Z,94.30
2019-03-10T05:27:50.406Z,94.70
2019-03-10T05:30:19.270Z,95.20
2019-03-10T05:32:48.080Z,95.30
2019-03-10T05:35:16.864Z,95.30
2019-03-10T05:37:45.666Z,95.20
2019-03-10T05:40:14.547Z,95.00
2019-03-10T05:42:43.440Z,95.00
2019-03-10T05:45:12.430Z,95.00
2019-03-10T05:47:41.322Z,95.10
2019-03-10T05:50:10.207Z,95.20
2019-03-10T05:52:38.996Z,95.20
2019-03-10T05:55:07.888Z,95.50
2019-03-10T05:57:36.674Z,95.70
2019-03-10T06:00:08.033Z,96.00
2019-03-10T06:02:36.709Z,96.30
2019-03-10T06:05:06.422Z,96.60
2019-03-10T06:07:35.209Z,96.80
2019-03-10T06:10:05.697Z,97.10
2019-03-10T06:12:34.528Z,97.50
2019-03-10T06:15:04.339Z,97.70
2019-03-10T06:17:33.331Z,97.80
2019-03-10T06:20:02.022Z,98.00
2019-03-10T06:22:30.909Z,98.00
2019-03-10T06:24:59.695Z,97.90
2019-03-10T06:27:28.689Z,97.70
2019-03-10T06:29:57.885Z,97.50
2019-03-10T06:32:26.772Z,97.20
2019-03-10T06:34:55.568Z,97.00
2019-03-10T06:37:24.658Z,97.00
2019-03-10T06:39:53.442Z,96.30
2019-03-10T06:42:22.438Z,96.20
2019-03-10T06:44:51.316Z,96.00
2019-03-10T06:47:20.119Z,95.80
2019-03-10T06:49:48.999Z,95.80
2019-03-10T06:52:18.006Z,95.80
2019-03-10T06:54:46.892Z,95.50
2019-03-10T06:57:15.781Z,95.30
2019-03-10T06:59:44.775Z,95.00
2019-03-10T07:02:13.576Z,94.80
2019-03-10T07:04:42.453Z,94.60
2019-03-10T07:07:11.348Z,94.50
2019-03-10T07:09:40.257Z,94.00
2019-03-10T07:12:09.128Z,93.80
2019-03-10T07:14:37.913Z,93.80
2019-03-10T07:17:06.700Z,93.20
2019-03-10T07:19:35.692Z,93.30
2019-03-10T07:22:04.893Z,93.10
2019-03-10T07:24:33.575Z,92.90
2019-03-10T07:27:02.675Z,92.40
2019-03-10T07:29:33.201Z,92.10
2019-03-10T07:32:21.857Z,92.20
2019-03-10T07:34:52.283Z,92.30
2019-03-10T07:37:28.755Z,92.60
2019-03-10T07:40:05.117Z,92.70
2019-03-10T07:42:35.647Z,93.30
2019-03-10T07:45:08.325Z,93.70
2019-03-10T07:47:38.749Z,93.70
2019-03-10T07:50:09.692Z,94.10
2019-03-10T07:52:45.850Z,94.00
2019-03-10T07:55:32.353Z,94.10
2019-03-10T07:58:22.239Z,94.10
2019-03-10T08:00:54.300Z,94.10
2019-03-10T08:03:31.285Z,94.00
2019-03-10T08:06:01.808Z,94.20
2019-03-10T08:08:49.649Z,94.50
2019-03-10T08:11:21.711Z,94.70
2019-03-10T08:14:06.475Z,95.00
2019-03-10T08:16:38.566Z,95.00
2019-03-10T08:19:19.362Z,95.10
2019-03-10T08:21:57.721Z,95.10
2019-03-10T08:24:48.219Z,94.40
2019-03-10T08:27:20.236Z,94.40
2019-03-10T08:29:55.748Z,93.50
2019-03-10T08:32:28.713Z,93.30
2019-03-10T08:35:11.532Z,92.50
2019-03-10T08:37:49.194Z,92.50
2019-03-10T08:40:23.030Z,92.00
2019-03-10T08:42:55.564Z,90.90
2019-03-10T08:45:29.723Z,91.00
2019-03-10T08:48:04.761Z,91.20
2019-03-10T08:50:36.205Z,90.80
2019-03-10T08:53:11.658Z,90.40
2019-03-10T08:55:43.094Z,90.40
2019-03-10T08:58:19.574Z,90.20
2019-03-10T09:00:58.681Z,89.40
2019-03-10T09:03:35.795Z,89.00
2019-03-10T09:06:07.972Z,87.10
2019-03-10T09:09:00.076Z,86.70
2019-03-10T09:11:47.331Z,86.00
2019-03-10T09:14:24.292Z,85.50
2019-03-10T09:16:57.907Z,86.20
2019-03-10T09:19:46.931Z,84.40
2019-03-10T09:22:33.053Z,83.70
2019-03-10T09:25:22.216Z,83.00
2019-03-10T09:28:04.704Z,84.40
2019-03-10T09:30:42.621Z,89.70
2019-03-10T09:33:16.757Z,91.50
2019-03-10T09:35:51.651Z,93.20
2019-03-10T09:38:25.579Z,93.60
2019-03-10T09:41:17.341Z,93.20
2019-03-10T09:43:48.088Z,92.70
2019-03-10T09:46:24.103Z,92.10
2019-03-10T09:49:06.604Z,90.90
2019-03-10T09:51:56.765Z,88.90
2019-03-10T09:54:33.875Z,87.30
2019-03-10T09:57:09.012Z,86.80
2019-03-10T09:59:52.545Z,86.50
2019-03-10T10:02:23.792Z,87.10
2019-03-10T10:05:09.683Z,85.50
2019-03-10T10:07:40.209Z,83.80
2019-03-10T10:10:28.149Z,82.80
2019-03-10T10:13:01.442Z,83.60
2019-03-10T10:15:40.779Z,83.20
2019-03-10T10:18:21.112Z,83.10
2019-03-10T10:21:00.674Z,83.50
2019-03-10T10:23:31.203Z,83.50
2019-03-10T10:26:04.497Z,83.80
2019-03-10T10:28:37.382Z,83.80
2019-03-10T10:31:24.196Z,83.70
2019-03-10T10:33:58.100Z,83.20
2019-03-10T10:36:45.223Z,83.10
2019-03-10T10:39:32.237Z,83.10
2019-03-10T10:42:11.781Z,83.20
2019-03-10T10:44:51.120Z,83.10
2019-03-10T10:47:21.844Z,84.20
2019-03-10T10:50:04.665Z,86.90
2019-03-10T10:52:51.901Z,88.50
2019-03-10T10:55:39.406Z,89.20
2019-03-10T10:58:15.787Z,88.80
2019-03-10T11:00:51.832Z,88.40
2019-03-10T11:03:37.614Z,87.60
2019-03-10T11:06:24.496Z,87.20
2019-03-10T11:09:02.694Z,87.20
2019-03-10T11:11:33.049Z,86.30
2019-03-10T11:14:06.901Z,86.80
2019-03-10T11:16:55.834Z,86.00
2019-03-10T11:19:44.760Z,85.30
2019-03-10T11:22:17.372Z,83.80
2019-03-10T11:24:50.157Z,81.70
2019-03-10T11:27:40.692Z,80.50
2019-03-10T11:30:24.627Z,79.10
2019-03-10T11:32:58.398Z,79.10
2019-03-10T11:35:47.668Z,77.90
2019-03-10T11:38:26.858Z,76.50
2019-03-10T11:41:06.289Z,76.60
2019-03-10T11:43:44.958Z,75.60
2019-03-10T11:46:36.889Z,73.00
2019-03-10T11:49:16.785Z,71.30
2019-03-10T11:51:56.279Z,71.30
2019-03-10T11:54:36.347Z,66.90
2019-03-10T11:57:07.369Z,60.80
2019-03-10T11:59:38.270Z,59.90
2019-03-10T12:02:25.635Z,60.20
2019-03-10T12:04:56.166Z,61.50
2019-03-10T12:07:43.277Z,61.00
2019-03-10T12:10:26.814Z,56.40
2019-03-10T12:12:55.700Z,53.70
2019-03-10T12:15:24.593Z,51.50
2019-03-10T12:17:53.994Z,46.70
2019-03-10T12:20:22.782Z,47.70
2019-03-10T12:22:52.491Z,47.00
2019-03-10T12:25:21.281Z,47.20
2019-03-10T12:27:50.925Z,46.10
2019-03-10T12:30:20.498Z,48.60
2019-03-10T12:32:49.273Z,49.40
2019-03-10T12:35:18.172Z,50.90
2019-03-10T12:37:47.065Z,52.30
2019-03-10T12:40:16.059Z,51.10
2019-03-10T12:42:45.153Z,52.50
2019-03-10T12:45:13.919Z,52.80
2019-03-10T12:47:42.728Z,53.80
2019-03-10T12:50:15.101Z,54.40
2019-03-10T12:52:43.988Z,55.20
2019-03-10T12:55:12.981Z,55.40
2019-03-10T12:57:41.871Z,55.00
2019-03-10T13:00:13.574Z,54.10
2019-03-10T13:02:42.521Z,53.70
2019-03-10T13:05:11.691Z,53.20
2019-03-10T13:07:40.626Z,50.40
2019-03-10T13:10:09.923Z,49.30
2019-03-10T13:12:40.232Z,50.90
2019-03-10T13:15:11.517Z,51.70
2019-03-10T13:17:40.470Z,47.70
2019-03-10T13:20:11.206Z,46.30
2019-03-10T13:22:40.109Z,47.20
2019-03-10T13:25:13.397Z,47.10
2019-03-10T13:27:42.384Z,44.60
2019-03-10T13:30:15.985Z,47.30
2019-03-10T13:32:54.048Z,50.30
2019-03-10T13:35:22.984Z,51.60
2019-03-10T13:38:00.897Z,52.70
2019-03-10T13:40:29.878Z,53.70
2019-03-10T13:42:58.669Z,54.50
2019-03-10T13:45:27.559Z,55.00
2019-03-10T13:47:56.446Z,55.90
2019-03-10T13:50:25.336Z,56.70
2019-03-10T13:52:54.125Z,58.00
2019-03-10T13:55:23.115Z,59.50
2019-03-10T13:57:51.907Z,63.00
2019-03-10T14:00:26.210Z,65.50
2019-03-10T14:02:55.317Z,66.20
2019-03-10T14:05:24.311Z,66.10
2019-03-10T14:07:53.303Z,67.10
2019-03-10T14:10:22.500Z,70.00
2019-03-10T14:12:51.495Z,77.30
2019-03-10T14:15:20.490Z,82.00
2019-03-10T14:17:49.380Z,80.50
2019-03-10T14:20:18.169Z,79.90
2019-03-10T14:22:46.956Z,80.70
2019-03-10T14:25:16.562Z,80.60
2019-03-10T14:27:45.349Z,81.10
2019-03-10T14:30:18.853Z,79.10
2019-03-10T14:32:47.738Z,76.10
2019-03-10T14:35:17.023Z,71.60
2019-03-10T14:37:45.927Z,72.60
2019-03-10T14:40:16.858Z,73.70
2019-03-10T14:42:45.757Z,76.30
2019-03-10T14:45:18.176Z,80.40
2019-03-10T14:47:47.323Z,87.10
2019-03-10T14:50:17.966Z,84.90
2019-03-10T14:52:47.363Z,85.90
2019-03-10T14:55:20.425Z,87.70
2019-03-10T14:57:49.214Z,88.90
2019-03-10T15:00:30.115Z,85.80
2019-03-10T15:02:58.940Z,84.00
2019-03-10T15:05:28.098Z,77.30
2019-03-10T15:07:56.991Z,77.20
2019-03-10T15:10:25.986Z,79.30
2019-03-10T15:12:55.590Z,79.80
2019-03-10T15:15:24.479Z,80.40
2019-03-10T15:17:53.370Z,80.90
2019-03-10T15:20:22.359Z,82.00
2019-03-10T15:22:51.249Z,81.40
2019-03-10T15:25:21.163Z,81.90
2019-03-10T15:27:50.165Z,80.60
2019-03-10T15:30:20.981Z,78.90
2019-03-10T15:32:49.887Z,76.90
2019-03-10T15:35:18.777Z,77.30
2019-03-10T15:37:47.869Z,72.30
2019-03-10T15:40:19.831Z,70.90
2019-03-10T15:42:48.962Z,69.70
2019-03-10T15:45:18.802Z,71.90
2019-03-10T15:47:47.714Z,70.90
2019-03-10T15:50:19.318Z,70.00
2019-03-10T15:52:48.380Z,69.90
2019-03-10T15:55:17.275Z,69.70
2019-03-10T15:57:50.125Z,70.60
2019-03-10T16:00:21.442Z,65.70
2019-03-10T16:02:50.385Z,65.60
2019-03-10T16:05:19.389Z,66.00
2019-03-10T16:07:48.277Z,67.50
2019-03-10T16:10:17.269Z,65.50
2019-03-10T16:12:46.160Z,64.50
2019-03-10T16:15:23.464Z,61.40
2019-03-10T16:17:52.341Z,55.30
2019-03-10T16:20:21.334Z,54.90
2019-03-10T16:22:50.121Z,52.30
2019-03-10T16:25:19.316Z,51.50
2019-03-10T16:27:49.873Z,53.60
2019-03-10T16:30:29.087Z,56.20
2019-03-10T16:32:57.971Z,57.50
2019-03-10T16:35:26.865Z,59.30
2019-03-10T16:37:55.855Z,60.40
2019-03-10T16:40:27.206Z,62.10
2019-03-10T16:42:56.188Z,61.30
2019-03-10T16:45:28.776Z,62.30
2019-03-10T16:47:57.752Z,63.80
2019-03-10T16:50:30.035Z,66.70
2019-03-10T16:52:59.529Z,70.20
2019-03-10T16:55:28.428Z,74.50
2019-03-10T16:57:57.324Z,77.40
2019-03-10T17:00:26.210Z,79.70
2019-03-10T17:02:55.100Z,77.70
2019-03-10T17:05:24.201Z,83.80
2019-03-10T17:07:53.035Z,87.80
2019-03-10T17:10:27.819Z,89.90
2019-03-10T17:12:57.859Z,90.50
2019-03-10T17:15:26.928Z,90.50
2019-03-10T17:17:56.025Z,90.70
2019-03-10T17:20:25.022Z,90.90
2019-03-10T17:22:53.998Z,91.00
2019-03-10T17:25:22.782Z,90.70
2019-03-10T17:27:51.567Z,85.50
2019-03-10T17:30:21.552Z,82.80
2019-03-10T17:32:50.780Z,80.00
2019-03-10T17:35:21.022Z,82.60
2019-03-10T17:37:49.815Z,80.30
2019-03-10T17:40:19.831Z,81.00
2019-03-10T17:42:48.669Z,80.20
2019-03-10T17:45:22.626Z,80.20
2019-03-10T17:47:51.720Z,79.20
2019-03-10T17:50:20.498Z,80.30
2019-03-10T17:52:50.038Z,79.50
2019-03-10T17:55:20.991Z,80.30
2019-03-10T17:57:49.771Z,79.10
2019-03-10T18:00:23.896Z,79.70
2019-03-10T18:02:55.175Z,80.60
2019-03-10T18:05:24.396Z,81.10
2019-03-10T18:07:58.974Z,81.90
2019-03-10T18:10:27.809Z,83.30
2019-03-10T18:12:56.847Z,84.00
2019-03-10T18:15:26.092Z,84.60
2019-03-10T18:17:54.971Z,86.20
2019-03-10T18:20:24.713Z,86.60
2019-03-10T18:22:53.903Z,86.70
2019-03-10T18:25:22.983Z,86.70
2019-03-10T18:27:51.789Z,86.90
2019-03-10T18:30:21.604Z,86.60
2019-03-10T18:32:50.578Z,86.30
2019-03-10T18:35:19.484Z,87.00
2019-03-10T18:37:48.372Z,86.40
2019-03-10T18:40:21.563Z,86.60
2019-03-10T18:42:50.351Z,85.10
2019-03-10T18:45:21.031Z,84.60
2019-03-10T18:47:51.666Z,84.30
2019-03-10T18:50:22.942Z,81.80
2019-03-10T18:52:52.258Z,81.30
2019-03-10T18:55:21.794Z,81.30
2019-03-10T18:57:51.066Z,80.50
2019-03-10T19:00:24.167Z,79.70
2019-03-10T19:02:53.764Z,79.70
2019-03-10T19:05:23.521Z,79.00
2019-03-10T19:07:52.526Z,78.90
2019-03-10T19:10:22.990Z,78.20
2019-03-10T19:12:52.093Z,77.50
2019-03-10T19:15:39.026Z,78.50
2019-03-10T19:18:03.912Z,77.30
2019-03-10T19:20:33.103Z,77.40
2019-03-10T19:23:02.193Z,75.30
2019-03-10T19:25:31.193Z,74.70
2019-03-10T19:28:00.078Z,73.70
2019-03-10T19:30:28.975Z,73.70
2019-03-10T19:32:58.065Z,73.20
2019-03-10T19:35:27.158Z,73.00
2019-03-10T19:37:56.264Z,72.30
2019-03-10T19:40:25.251Z,71.10
2019-03-10T19:42:54.136Z,71.80
2019-03-10T19:45:25.418Z,70.70
2019-03-10T19:47:54.646Z,70.30
2019-03-10T19:50:27.286Z,69.10
2019-03-10T19:52:56.345Z,68.40
2019-03-10T19:55:26.171Z,69.20
2019-03-10T19:57:55.292Z,68.50
2019-03-10T20:00:24.423Z,69.20
2019-03-10T20:02:53.367Z,68.60
2019-03-10T20:05:22.357Z,68.90
2019-03-10T20:07:51.345Z,67.50
2019-03-10T20:10:27.045Z,68.30
2019-03-10T20:12:56.284Z,68.20
2019-03-10T20:15:57.850Z,67.70
2019-03-10T20:18:26.529Z,67.70
2019-03-10T20:20:55.771Z,68.50
2019-03-10T20:23:25.338Z,67.80
2019-03-10T20:25:54.701Z,67.40
2019-03-10T20:28:23.835Z,67.80
2019-03-10T20:30:52.834Z,67.40
2019-03-10T20:35:58.311Z,67.80
2019-03-10T20:38:27.405Z,67.60
2019-03-10T20:40:57.392Z,67.30
2019-03-10T20:43:26.200Z,68.10
2019-03-10T20:45:57.496Z,67.70
2019-03-10T20:48:26.733Z,67.00
2019-03-10T20:50:55.734Z,66.70
2019-03-10T20:53:25.126Z,66.00
2019-03-10T20:55:54.884Z,66.20
2019-03-10T20:58:23.930Z,66.50
2019-03-10T21:00:52.908Z,66.20
2019-03-10T21:03:21.713Z,65.00
2019-03-10T21:05:50.499Z,64.70
2019-03-10T21:08:19.392Z,65.20
2019-03-10T21:10:48.805Z,64.70
2019-03-10T21:13:17.684Z,63.60
2019-03-10T21:15:51.083Z,63.80
2019-03-10T21:18:41.271Z,64.10
2019-03-10T21:21:11.070Z,63.90
2019-03-10T21:23:42.949Z,63.70
2019-03-10T21:26:12.144Z,63.20
2019-03-10T21:28:54.430Z,63.40
2019-03-10T21:31:29.018Z,63.10
2019-03-10T21:34:09.115Z,63.20
2019-03-10T21:36:49.078Z,62.70
2019-03-10T21:39:18.175Z,63.40
2019-03-10T21:41:46.959Z,63.30
2019-03-10T21:44:26.112Z,63.20
2019-03-10T21:46:46.583Z,63.00
2019-03-10T21:49:15.470Z,63.30
2019-03-10T21:51:44.258Z,62.60
2019-03-10T21:54:13.048Z,62.80
2019-03-10T21:56:42.611Z,62.70
2019-03-10T21:59:12.761Z,62.90
2019-03-10T22:01:41.457Z,63.20
2019-03-10T22:04:10.657Z,63.70
2019-03-10T22:06:40.165Z,63.70
2019-03-10T22:09:11.058Z,63.90
2019-03-10T22:11:40.198Z,64.30
2019-03-10T22:14:08.984Z,63.90
2019-03-10T22:16:37.771Z,64.50
2019-03-10T22:19:06.727Z,66.10
2019-03-10T22:21:35.959Z,66.60
2019-03-10T22:24:05.161Z,68.60
2019-03-10T22:26:55.453Z,71.30
2019-03-10T22:29:25.888Z,72.60
2019-03-10T22:31:54.673Z,74.90
2019-03-10T22:34:23.985Z,78.20
2019-03-10T22:36:59.337Z,81.70
2019-03-10T22:39:32.822Z,85.20
2019-03-10T22:42:05.174Z,90.40
2019-03-10T22:44:34.992Z,92.00
2019-03-10T22:47:05.429Z,92.20
2019-03-10T22:49:35.333Z,92.50
2019-03-10T22:52:05.513Z,93.20
2019-03-10T22:54:37.600Z,92.80
2019-03-10T22:57:07.242Z,92.50
2019-03-10T22:59:36.286Z,92.60
2019-03-10T23:02:05.518Z,92.60
2019-03-10T23:04:34.721Z,92.40
2019-03-10T23:07:03.617Z,92.30
2019-03-10T23:09:34.034Z,92.40
2019-03-10T23:12:02.925Z,92.10
2019-03-10T23:14:31.819Z,92.40
2019-03-10T23:17:00.707Z,92.30
2019-03-10T23:19:48.746Z,92.10
2019-03-10T23:22:17.535Z,91.80
2019-03-10T23:24:46.327Z,91.90
2019-03-10T23:27:15.248Z,91.20
2019-03-10T23:29:44.106Z,91.30
2019-03-10T23:32:12.891Z,91.10
2019-03-10T23:34:41.894Z,90.70
2019-03-10T23:37:34.500Z,90.20
2019-03-10T23:40:05.474Z,90.70
2019-03-10T23:42:34.668Z,90.90
2019-03-10T23:45:04.571Z,90.30
2019-03-10T23:47:35.165Z,90.40
2019-03-10T23:50:05.330Z,90.10
2019-03-10T23:52:34.532Z,90.10
2019-03-10T23:55:06.354Z,89.80
2019-03-10T23:57:35.282Z,90.00
